Time;durP1;ratioP1;P1;durP2;ratioP2;P2;SDS_P1;SDS_P2;PMS_P1;PMS_P2;Temp;Humidity;BMP_temperature;BMP_pressure;BME280_temperature;BME280_humidity;BME280_pressure;Samples;Min_cycle;Max_cycle;Signal;HPM_P1;HPM_P2
2023/12/19 00:01:20;;;;;;;1999.90;999.90;;;-1.10;99.90;;;;;;5042693;28;20033;-76
2023/12/19 00:03:46;;;;;;;1999.90;999.90;;;-1.00;99.90;;;;;;5047076;28;20037;-76
2023/12/19 00:06:11;;;;;;;1999.90;999.90;;;-0.90;99.90;;;;;;5045335;28;20182;-77
2023/12/19 00:08:37;;;;;;;1999.90;999.90;;;-0.90;99.90;;;;;;5046346;28;20542;-76
2023/12/19 00:11:03;;;;;;;1999.90;999.90;;;-1.00;99.90;;;;;;5043949;28;20033;-76
2023/12/19 00:13:28;;;;;;;1999.90;999.90;;;-1.00;99.90;;;;;;5047304;28;20080;-75
2023/12/19 00:15:54;;;;;;;1999.90;999.90;;;-1.10;99.90;;;;;;5046068;28;20033;-77
2023/12/19 00:18:20;;;;;;;1999.90;999.90;;;-1.10;99.90;;;;;;5026613;28;20090;-76
2023/12/19 00:20:45;;;;;;;1999.90;999.90;;;-1.10;99.90;;;;;;5045502;28;20037;-76
2023/12/19 00:23:14;;;;;;;1999.90;999.90;;;-1.00;99.90;;;;;;5045498;28;20485;-75
2023/12/19 00:25:39;;;;;;;1999.90;999.90;;;-1.10;99.90;;;;;;5044016;28;20056;-74
2023/12/19 00:28:05;;;;;;;1999.90;999.90;;;-1.00;99.90;;;;;;5044705;28;20060;-76
2023/12/19 00:30:31;;;;;;;1999.90;999.90;;;-1.10;99.90;;;;;;5058108;28;20511;-77
2023/12/19 00:32:59;;;;;;;1999.90;999.90;;;-1.20;99.90;;;;;;5045743;28;20029;-76
2023/12/19 00:35:26;;;;;;;1999.90;999.90;;;-1.10;99.90;;;;;;5045547;28;20060;-75
2023/12/19 00:37:52;;;;;;;1999.90;999.90;;;-1.00;99.90;;;;;;5045046;28;20033;-76
2023/12/19 00:40:17;;;;;;;1999.90;999.90;;;-1.00;99.90;;;;;;5043241;28;20510;-76
2023/12/19 00:42:43;;;;;;;1999.90;999.90;;;-0.90;99.90;;;;;;5043617;28;20036;-76
2023/12/19 00:45:10;;;;;;;1999.90;999.90;;;-0.90;99.90;;;;;;5044813;28;20028;-76
2023/12/19 00:47:39;;;;;;;1999.90;999.90;;;-0.90;99.90;;;;;;5040595;28;20461;-76
2023/12/19 00:50:07;;;;;;;1999.90;999.90;;;-0.90;99.90;;;;;;5044640;28;20091;-77
2023/12/19 00:52:33;;;;;;;1999.90;999.90;;;-0.90;99.90;;;;;;5044966;28;20037;-76
2023/12/19 00:54:59;;;;;;;1999.90;999.90;;;-0.90;99.90;;;;;;5046225;28;20041;-76
2023/12/19 00:57:25;;;;;;;1999.90;999.90;;;-0.80;99.90;;;;;;5043950;28;20032;-75
2023/12/19 00:59:50;;;;;;;1999.90;999.90;;;-0.80;99.90;;;;;;5045859;28;20056;-76
2023/12/19 01:02:16;;;;;;;1999.90;999.90;;;-0.80;99.90;;;;;;5027727;28;20032;-76
2023/12/19 01:04:42;;;;;;;1999.90;999.90;;;-0.80;99.90;;;;;;5042928;28;20465;-76
2023/12/19 01:07:07;;;;;;;1999.90;999.90;;;-0.80;99.90;;;;;;5046062;28;20448;-76
2023/12/19 01:09:33;;;;;;;1999.90;999.90;;;-0.80;99.90;;;;;;5043571;28;20029;-76
2023/12/19 01:11:59;;;;;;;1999.90;999.90;;;-0.80;99.90;;;;;;5046439;28;20566;-76
2023/12/19 01:14:24;;;;;;;1999.90;999.90;;;-0.90;99.90;;;;;;5045755;28;20411;-76
2023/12/19 01:16:50;;;;;;;1999.90;999.90;;;-0.90;99.90;;;;;;5044155;28;20021;-77
2023/12/19 01:19:16;;;;;;;1999.90;999.90;;;-0.80;99.90;;;;;;5042605;28;20120;-76
2023/12/19 01:21:41;;;;;;;1999.90;999.90;;;-0.80;99.90;;;;;;5044886;28;20053;-76
2023/12/19 01:24:07;;;;;;;1999.90;999.90;;;-0.70;99.90;;;;;;5045064;28;20702;-75
2023/12/19 01:26:33;;;;;;;1999.90;999.90;;;-0.80;99.90;;;;;;5045828;28;20478;-76
2023/12/19 01:28:59;;;;;;;1999.90;999.90;;;-0.80;99.90;;;;;;5045436;28;20108;-76
2023/12/19 01:31:24;;;;;;;1999.90;999.90;;;-0.80;99.90;;;;;;5045371;28;20032;-76
2023/12/19 01:33:51;;;;;;;1999.90;999.90;;;-0.80;99.90;;;;;;5043605;28;20068;-76
2023/12/19 01:36:17;;;;;;;1999.90;999.90;;;-0.70;99.90;;;;;;5047688;28;20037;-76
2023/12/19 01:38:43;;;;;;;1999.90;999.90;;;-0.70;99.90;;;;;;5050093;28;20028;-77
2023/12/19 01:41:08;;;;;;;1999.90;999.90;;;-0.70;99.90;;;;;;5048589;28;20037;-77
2023/12/19 01:43:34;;;;;;;1999.90;999.90;;;-0.70;99.90;;;;;;5047790;28;20506;-76
2023/12/19 01:45:59;;;;;;;1999.90;999.90;;;-0.80;99.90;;;;;;5045239;28;20048;-77
2023/12/19 01:48:26;;;;;;;1999.90;999.90;;;-0.80;99.90;;;;;;5048518;28;20068;-77
2023/12/19 01:50:52;;;;;;;1999.90;999.90;;;-0.70;99.90;;;;;;5060956;28;20520;-76
2023/12/19 01:53:19;;;;;;;1999.90;999.90;;;-0.70;99.90;;;;;;5048028;28;20043;-76
2023/12/19 01:55:47;;;;;;;1999.90;999.90;;;-0.70;99.90;;;;;;5047703;28;20801;-75
2023/12/19 01:58:14;;;;;;;1999.90;999.90;;;-0.70;99.90;;;;;;5031292;28;20376;-76
2023/12/19 02:00:40;;;;;;;1999.90;999.90;;;-0.60;99.90;;;;;;5060404;28;20043;-75
2023/12/19 02:03:06;;;;;;;1999.90;999.90;;;-0.60;99.90;;;;;;5048767;28;20507;-76
2023/12/19 02:05:38;;;;;;;1999.90;999.90;;;-0.60;99.90;;;;;;5046400;28;20051;-76
2023/12/19 02:08:05;;;;;;;1999.90;999.90;;;-0.60;99.90;;;;;;5047773;28;20487;-76
2023/12/19 02:10:31;;;;;;;1999.90;999.90;;;-0.60;99.90;;;;;;5044510;28;20431;-77
2023/12/19 02:12:57;;;;;;;1999.90;999.90;;;-0.60;99.90;;;;;;5049232;28;20487;-75
2023/12/19 02:15:23;;;;;;;1999.90;999.90;;;-0.70;99.90;;;;;;5045262;28;20033;-76
2023/12/19 02:17:48;;;;;;;1999.90;999.90;;;-0.60;99.90;;;;;;5046005;28;20029;-76
2023/12/19 02:20:14;;;;;;;1999.90;999.90;;;-0.70;99.90;;;;;;5048111;28;20037;-76
2023/12/19 02:22:41;;;;;;;1999.90;999.90;;;-0.60;99.90;;;;;;5046654;28;20032;-76
2023/12/19 02:25:07;;;;;;;1999.90;999.90;;;-0.70;99.90;;;;;;5043506;28;20115;-76
2023/12/19 02:27:34;;;;;;;1999.90;999.90;;;-0.60;99.90;;;;;;5045464;28;20037;-76
2023/12/19 02:30:00;;;;;;;1999.90;999.90;;;-0.70;99.90;;;;;;5047236;28;20047;-76
2023/12/19 02:32:26;;;;;;;1999.90;999.90;;;-0.60;99.90;;;;;;5046584;28;20038;-76
2023/12/19 02:34:51;;;;;;;1999.90;999.90;;;-0.60;99.90;;;;;;5046398;28;20062;-76
2023/12/19 02:37:17;;;;;;;1999.90;999.90;;;-0.60;99.90;;;;;;5044569;28;20398;-76
2023/12/19 02:39:43;;;;;;;1999.90;999.90;;;-0.60;99.90;;;;;;5048043;28;20032;-75
2023/12/19 02:42:09;;;;;;;1999.90;999.90;;;-0.50;99.90;;;;;;5046395;28;20046;-76
2023/12/19 02:44:34;;;;;;;1999.90;999.90;;;-0.50;99.90;;;;;;5044988;28;20038;-76
2023/12/19 02:47:00;;;;;;;1999.90;999.90;;;-0.50;99.90;;;;;;5030268;28;20032;-76
2023/12/19 02:49:26;;;;;;;1999.90;999.90;;;-0.60;99.90;;;;;;5045854;28;20072;-76
2023/12/19 02:51:52;;;;;;;1999.90;999.90;;;-0.60;99.90;;;;;;5047399;28;20079;-76
2023/12/19 02:54:17;;;;;;;1999.90;999.90;;;-0.60;99.90;;;;;;5048073;28;20928;-76
2023/12/19 02:56:43;;;;;;;1999.90;999.90;;;-0.60;99.90;;;;;;5047156;28;20056;-77
2023/12/19 02:59:09;;;;;;;1999.90;999.90;;;-0.60;99.90;;;;;;5047382;28;20033;-76
2023/12/19 03:01:34;;;;;;;1999.90;999.90;;;-0.70;99.90;;;;;;5045788;28;20033;-75
2023/12/19 03:04:00;;;;;;;1999.90;999.90;;;-0.60;99.90;;;;;;5046348;28;20112;-76
2023/12/19 03:06:26;;;;;;;1999.90;999.90;;;-0.60;99.90;;;;;;5045097;28;20052;-76
2023/12/19 03:08:57;;;;;;;1999.90;999.90;;;-0.70;99.90;;;;;;5045588;28;20047;-76
2023/12/19 03:11:23;;;;;;;1999.90;999.90;;;-0.60;99.90;;;;;;5043133;28;20043;-76
2023/12/19 03:13:48;;;;;;;1999.90;999.90;;;-0.70;99.90;;;;;;5045966;28;20036;-76
2023/12/19 03:16:14;;;;;;;1999.90;999.90;;;-0.70;99.90;;;;;;5048219;28;20029;-76
2023/12/19 03:18:40;;;;;;;1999.90;999.90;;;-0.70;99.90;;;;;;5041949;28;20123;-77
2023/12/19 03:21:06;;;;;;;1999.90;999.90;;;-0.60;99.90;;;;;;5046671;28;20071;-77
2023/12/19 03:23:32;;;;;;;1999.90;999.90;;;-0.80;99.90;;;;;;5046745;28;20039;-76
2023/12/19 03:25:57;;;;;;;1999.90;999.90;;;-0.80;99.90;;;;;;5047954;28;20037;-75
2023/12/19 03:28:23;;;;;;;1999.90;999.90;;;-0.80;99.90;;;;;;5043679;28;20028;-77
2023/12/19 03:30:50;;;;;;;1999.90;999.90;;;-0.80;99.90;;;;;;5027443;28;20468;-76
2023/12/19 03:33:16;;;;;;;1999.90;999.90;;;-0.70;99.90;;;;;;5044242;28;20036;-76
2023/12/19 03:35:41;;;;;;;1999.90;999.90;;;-0.70;99.90;;;;;;5046173;28;20050;-75
2023/12/19 03:38:07;;;;;;;1999.90;999.90;;;-0.70;99.90;;;;;;5044800;28;20056;-76
2023/12/19 03:40:33;;;;;;;1999.90;999.90;;;-0.80;99.90;;;;;;5048225;28;20033;-76
2023/12/19 03:42:59;;;;;;;1999.90;999.90;;;-0.70;99.90;;;;;;5043836;28;20736;-76
2023/12/19 03:45:24;;;;;;;1999.90;999.90;;;-0.60;99.90;;;;;;5042288;28;20025;-76
2023/12/19 03:47:50;;;;;;;1999.90;999.90;;;-0.60;99.90;;;;;;5043421;28;20045;-76
2023/12/19 03:50:16;;;;;;;1999.90;999.90;;;-0.70;99.90;;;;;;5044892;28;20037;-76
2023/12/19 03:52:41;;;;;;;1999.90;999.90;;;-0.70;99.90;;;;;;5043635;28;20437;-76
2023/12/19 03:55:08;;;;;;;1999.90;999.90;;;-0.70;99.90;;;;;;5046190;28;20146;-75
2023/12/19 03:57:34;;;;;;;1999.90;999.90;;;-0.80;99.90;;;;;;5043501;28;20033;-76
2023/12/19 04:00:00;;;;;;;1999.90;999.90;;;-0.80;99.90;;;;;;5043937;28;20484;-76
2023/12/19 04:02:25;;;;;;;1999.90;999.90;;;-0.70;99.90;;;;;;5045984;28;20124;-76
2023/12/19 04:04:51;;;;;;;1999.90;999.90;;;-0.70;99.90;;;;;;5041372;28;20128;-76
2023/12/19 04:07:17;;;;;;;1999.90;999.90;;;-0.70;99.90;;;;;;5044103;28;20044;-75
2023/12/19 04:09:42;;;;;;;1999.90;999.90;;;-0.70;99.90;;;;;;5055704;28;20025;-76
2023/12/19 04:12:09;;;;;;;1999.90;999.90;;;-0.80;99.90;;;;;;5046634;28;20061;-76
2023/12/19 04:14:35;;;;;;;1999.90;999.90;;;-0.70;99.90;;;;;;5043043;28;20030;-76
2023/12/19 04:17:01;;;;;;;1999.90;999.90;;;-0.70;99.90;;;;;;5044159;28;20031;-75
2023/12/19 04:19:27;;;;;;;1999.90;999.90;;;-0.70;99.90;;;;;;5046599;28;20069;-76
2023/12/19 04:21:53;;;;;;;1999.90;999.90;;;-0.80;99.90;;;;;;5026572;28;20052;-76
2023/12/19 04:24:19;;;;;;;1999.90;999.90;;;-0.80;99.90;;;;;;5044039;28;20036;-76
2023/12/19 04:26:49;;;;;;;1999.90;999.90;;;-0.80;99.90;;;;;;5046666;28;20022;-76
2023/12/19 04:29:15;;;;;;;1999.90;999.90;;;-0.70;99.90;;;;;;5043235;28;20028;-76
2023/12/19 04:31:41;;;;;;;1999.90;999.90;;;-0.70;99.90;;;;;;5042714;28;20063;-76
2023/12/19 04:34:07;;;;;;;1999.90;999.90;;;-0.70;99.90;;;;;;5044488;28;20041;-76
2023/12/19 04:36:33;;;;;;;1999.90;999.90;;;-0.70;99.90;;;;;;5044522;28;20097;-77
2023/12/19 04:38:59;;;;;;;1999.90;999.90;;;-0.70;99.90;;;;;;5044659;28;20600;-77
2023/12/19 04:41:25;;;;;;;1999.90;999.90;;;-0.70;99.90;;;;;;5042610;28;20179;-75
2023/12/19 04:43:51;;;;;;;1999.90;999.90;;;-0.70;99.90;;;;;;5044884;28;20028;-76
2023/12/19 04:46:16;;;;;;;1999.90;999.90;;;-0.80;99.90;;;;;;5044800;28;20029;-77
2023/12/19 04:48:42;;;;;;;1999.90;999.90;;;-0.80;99.90;;;;;;5042082;28;20057;-77
2023/12/19 04:51:19;;;;;;;1999.90;999.90;;;-0.80;99.90;;;;;;5042410;28;20088;-76
2023/12/19 04:53:45;;;;;;;1999.90;999.90;;;-0.90;99.90;;;;;;5041649;28;20143;-77
2023/12/19 04:56:11;;;;;;;1999.90;999.90;;;-0.90;99.90;;;;;;5041964;28;20037;-76
2023/12/19 04:58:38;;;;;;;1999.90;999.90;;;-0.90;99.90;;;;;;5043533;28;20492;-77
2023/12/19 05:01:04;;;;;;;1999.90;999.90;;;-0.90;99.90;;;;;;5041769;28;20029;-76
2023/12/19 05:03:29;;;;;;;1999.90;999.90;;;-0.90;99.90;;;;;;5041364;28;20733;-76
2023/12/19 05:05:55;;;;;;;1999.90;999.90;;;-0.90;99.90;;;;;;5042885;28;20041;-77
2023/12/19 05:08:21;;;;;;;1999.90;999.90;;;-0.90;99.90;;;;;;5043672;28;20036;-76
2023/12/19 05:10:46;;;;;;;1999.90;999.90;;;-0.90;99.90;;;;;;5057282;28;20052;-75
2023/12/19 05:13:12;;;;;;;1999.90;999.90;;;-1.00;99.90;;;;;;5045577;28;20119;-76
2023/12/19 05:15:38;;;;;;;1999.90;999.90;;;-0.90;99.90;;;;;;5049849;28;20037;-76
2023/12/19 05:18:04;;;;;;;1999.90;999.90;;;-1.00;99.90;;;;;;5046090;28;20167;-75
2023/12/19 05:20:29;;;;;;;1999.90;999.90;;;-1.00;99.90;;;;;;5045139;28;20124;-72
2023/12/19 05:22:55;;;;;;;1999.90;999.90;;;-1.00;99.90;;;;;;5047674;28;20028;-72
2023/12/19 05:25:21;;;;;;;1999.90;999.90;;;-1.00;99.90;;;;;;5048222;28;20041;-71
2023/12/19 05:27:46;;;;;;;1999.90;999.90;;;-0.90;99.90;;;;;;5050125;28;20044;-72
2023/12/19 05:30:12;;;;;;;1999.90;999.90;;;-0.90;99.90;;;;;;5049306;28;20047;-72
2023/12/19 05:32:39;;;;;;;1999.90;999.90;;;-0.90;99.90;;;;;;5046893;28;20058;-71
2023/12/19 05:35:06;;;;;;;1999.90;999.90;;;-0.90;99.90;;;;;;5049196;28;20021;-74
2023/12/19 05:37:32;;;;;;;1999.90;999.90;;;-0.90;99.90;;;;;;5046832;28;20029;-77
2023/12/19 05:39:57;;;;;;;1999.90;999.90;;;-0.90;99.90;;;;;;5049469;28;20070;-76
2023/12/19 05:42:24;;;;;;;1999.90;999.90;;;-0.90;99.90;;;;;;5049512;28;20033;-77
2023/12/19 05:44:50;;;;;;;1999.90;999.90;;;-0.90;99.90;;;;;;5045526;28;20727;-76
2023/12/19 05:47:15;;;;;;;1999.90;999.90;;;-0.90;99.90;;;;;;5048947;28;20033;-76
2023/12/19 05:49:41;;;;;;;1999.90;999.90;;;-0.90;99.90;;;;;;5047905;28;20136;-77
2023/12/19 05:52:07;;;;;;;1999.90;999.90;;;-0.90;99.90;;;;;;5048107;28;20044;-77
2023/12/19 05:54:33;;;;;;;1999.90;999.90;;;-0.80;99.90;;;;;;5045920;28;20029;-77
2023/12/19 05:56:59;;;;;;;1999.90;999.90;;;-0.90;99.90;;;;;;5044154;28;20032;-77
2023/12/19 05:59:24;;;;;;;1999.90;999.90;;;-0.90;99.90;;;;;;5030048;28;20029;-76
2023/12/19 06:01:50;;;;;;;1999.90;999.90;;;-0.80;99.90;;;;;;5047725;28;20394;-76
2023/12/19 06:04:16;;;;;;;1999.90;999.90;;;-0.80;99.90;;;;;;5045841;28;20116;-79
2023/12/19 06:06:44;;;;;;;1999.90;999.90;;;-0.80;99.90;;;;;;5044876;28;20061;-77
2023/12/19 06:09:11;;;;;;;1999.90;999.90;;;-0.80;99.90;;;;;;5046298;28;20087;-76
2023/12/19 06:11:37;;;;;;;1999.90;999.90;;;-0.80;99.90;;;;;;5047729;28;20120;-76
2023/12/19 06:14:07;;;;;;;1999.90;999.90;;;-0.90;99.90;;;;;;5046168;28;20032;-75
2023/12/19 06:16:33;;;;;;;1999.90;999.90;;;-0.80;99.90;;;;;;5047218;28;20036;-76
2023/12/19 06:18:59;;;;;;;1999.90;999.90;;;-0.90;99.90;;;;;;5048897;28;20059;-75
2023/12/19 06:21:25;;;;;;;1999.90;999.90;;;-0.90;99.90;;;;;;5044321;28;20036;-75
2023/12/19 06:23:51;;;;;;;1999.90;999.90;;;-0.90;99.90;;;;;;5042877;28;20029;-76
2023/12/19 06:26:17;;;;;;;1999.90;999.90;;;-0.90;99.90;;;;;;5047711;28;20044;-75
2023/12/19 06:28:43;;;;;;;1999.90;999.90;;;-0.90;99.90;;;;;;5049509;28;20048;-77
2023/12/19 06:31:08;;;;;;;1999.90;999.90;;;-0.90;99.90;;;;;;5048611;28;20028;-78
2023/12/19 06:33:36;;;;;;;1999.90;999.90;;;-0.90;99.90;;;;;;5045179;28;20033;-77
2023/12/19 06:36:02;;;;;;;1999.90;999.90;;;-0.90;99.90;;;;;;5045970;28;20033;-77
2023/12/19 06:38:28;;;;;;;1999.90;999.90;;;-0.90;99.90;;;;;;5042444;28;20057;-77
2023/12/19 06:40:54;;;;;;;1999.90;999.90;;;-0.90;99.90;;;;;;5048458;28;20049;-76
2023/12/19 06:43:20;;;;;;;1999.90;999.90;;;-0.90;99.90;;;;;;5045285;28;20541;-77
2023/12/19 06:45:46;;;;;;;1999.90;999.90;;;-0.90;99.90;;;;;;5042626;28;20163;-76
2023/12/19 06:48:11;;;;;;;1999.90;999.90;;;-0.90;99.90;;;;;;5047447;28;20057;-77
2023/12/19 06:50:39;;;;;;;1999.90;999.90;;;-0.80;99.90;;;;;;5045486;28;20735;-78
2023/12/19 06:53:04;;;;;;;1999.90;999.90;;;-0.80;99.90;;;;;;5044147;28;20045;-78
2023/12/19 06:55:30;;;;;;;1999.90;999.90;;;-0.80;99.90;;;;;;5047882;28;20036;-76
2023/12/19 06:57:56;;;;;;;1999.90;999.90;;;-0.80;99.90;;;;;;5046054;28;20072;-77
2023/12/19 07:00:22;;;;;;;1999.90;999.90;;;-0.80;99.90;;;;;;5046488;28;20029;-77
2023/12/19 07:02:47;;;;;;;1999.90;999.90;;;-0.90;99.90;;;;;;5046116;28;20404;-78
2023/12/19 07:05:13;;;;;;;1999.90;999.90;;;-0.90;99.90;;;;;;5031077;28;20029;-78
2023/12/19 07:07:39;;;;;;;1999.90;999.90;;;-0.90;99.90;;;;;;5044150;28;20033;-78
2023/12/19 07:10:05;;;;;;;1999.90;999.90;;;-0.90;99.90;;;;;;5043901;28;20710;-78
2023/12/19 07:12:31;;;;;;;1999.90;999.90;;;-0.80;99.90;;;;;;5047155;28;20045;-76
2023/12/19 07:14:56;;;;;;;1999.90;999.90;;;-0.80;99.90;;;;;;5045385;28;20033;-78
2023/12/19 07:17:22;;;;;;;1999.90;999.90;;;-0.80;99.90;;;;;;5044372;28;20025;-78
2023/12/19 07:19:48;;;;;;;1999.90;999.90;;;-0.70;99.90;;;;;;5046160;28;20033;-78
2023/12/19 07:22:14;;;;;;;1999.90;999.90;;;-0.80;99.90;;;;;;5046839;28;20112;-77
2023/12/19 07:24:40;;;;;;;1999.90;999.90;;;-0.80;99.90;;;;;;5046291;28;20029;-78
2023/12/19 07:27:06;;;;;;;1999.90;999.90;;;-0.70;99.90;;;;;;5046884;28;20329;-78
2023/12/19 07:29:32;;;;;;;1999.90;999.90;;;-0.80;99.90;;;;;;5045695;28;20037;-79
2023/12/19 07:31:58;;;;;;;1999.90;999.90;;;-0.90;99.90;;;;;;5045638;28;20033;-77
2023/12/19 07:34:24;;;;;;;1999.90;999.90;;;-0.80;99.90;;;;;;5045975;28;20106;-76
2023/12/19 07:36:51;;;;;;;1999.90;999.90;;;-0.80;99.90;;;;;;5046033;28;20061;-78
2023/12/19 07:39:16;;;;;;;1999.90;999.90;;;-0.80;99.90;;;;;;5045624;28;20017;-77
2023/12/19 07:41:42;;;;;;;1999.90;999.90;;;-0.70;99.90;;;;;;5045185;28;20025;-76
2023/12/19 07:44:09;;;;;;;1999.90;999.90;;;-0.60;99.90;;;;;;5044920;28;20094;-77
2023/12/19 07:46:39;;;;;;;1999.90;999.90;;;-0.70;99.90;;;;;;5047916;28;20078;-77
2023/12/19 07:49:05;;;;;;;1999.90;999.90;;;-0.60;99.90;;;;;;5046187;28;20052;-77
2023/12/19 07:51:31;;;;;;;1999.90;999.90;;;-0.60;99.90;;;;;;5045202;28;20040;-76
2023/12/19 07:53:57;;;;;;;1999.90;999.90;;;-0.60;99.90;;;;;;5042529;28;20032;-77
2023/12/19 07:56:22;;;;;;;1999.90;999.90;;;-0.60;99.90;;;;;;5047307;28;20025;-77
2023/12/19 07:58:48;;;;;;;1999.90;999.90;;;-0.60;99.90;;;;;;5043050;28;20394;-76
2023/12/19 08:01:14;;;;;;;1999.90;999.90;;;-0.60;99.90;;;;;;5042954;28;20558;-77
2023/12/19 08:03:41;;;;;;;1999.90;999.90;;;-0.60;99.90;;;;;;5058180;28;20037;-76
2023/12/19 08:06:07;;;;;;;1999.90;999.90;;;-0.50;99.90;;;;;;5046012;28;20017;-78
2023/12/19 08:08:33;;;;;;;1999.90;999.90;;;-0.50;99.90;;;;;;5042130;28;20041;-77
2023/12/19 08:10:58;;;;;;;1999.90;999.90;;;-0.40;99.90;;;;;;5046029;28;20029;-76
2023/12/19 08:13:24;;;;;;;1999.90;999.90;;;-0.40;99.90;;;;;;5045368;28;20032;-76
2023/12/19 08:15:50;;;;;;;1999.90;999.90;;;-0.40;99.90;;;;;;5045883;28;20419;-76
2023/12/19 08:18:16;;;;;;;1999.90;999.90;;;-0.30;99.90;;;;;;5044985;28;20056;-74
2023/12/19 08:20:43;;;;;;;1999.90;999.90;;;-0.30;99.90;;;;;;5043614;28;20096;-77
2023/12/19 08:23:09;;;;;;;1999.90;999.90;;;-0.30;99.90;;;;;;5045908;28;20051;-75
2023/12/19 08:25:35;;;;;;;1999.90;999.90;;;-0.30;99.90;;;;;;5045648;28;20029;-78
2023/12/19 08:28:04;;;;;;;1999.90;999.90;;;-0.40;99.90;;;;;;5046210;28;20326;-77
2023/12/19 08:30:30;;;;;;;1999.90;999.90;;;-0.30;99.90;;;;;;5045039;28;20037;-76
2023/12/19 08:32:56;;;;;;;1999.90;999.90;;;-0.30;99.90;;;;;;5044881;28;20402;-77
2023/12/19 08:35:22;;;;;;;1999.90;999.90;;;-0.20;99.90;;;;;;5045813;28;20044;-75
2023/12/19 08:37:48;;;;;;;1999.90;999.90;;;-0.20;99.90;;;;;;5043743;28;20017;-77
2023/12/19 08:40:21;;;;;;;1999.90;999.90;;;-0.20;99.90;;;;;;5045696;28;20055;-76
2023/12/19 08:42:48;;;;;;;1999.90;999.90;;;-0.20;99.90;;;;;;5046827;28;20060;-76
2023/12/19 08:45:15;;;;;;;1999.90;999.90;;;-0.10;99.90;;;;;;5049399;28;20057;-76
2023/12/19 08:47:42;;;;;;;1999.90;999.90;;;-0.10;99.90;;;;;;5050423;28;20564;-76
2023/12/19 08:50:09;;;;;;;1999.90;999.90;;;0.00;99.90;;;;;;5049323;28;20056;-75
2023/12/19 08:52:37;;;;;;;1999.90;999.90;;;0.00;99.90;;;;;;5047196;28;20137;-77
2023/12/19 08:55:07;;;;;;;1999.90;999.90;;;0.10;99.90;;;;;;5048304;28;20079;-75
2023/12/19 08:57:35;;;;;;;1999.90;999.90;;;0.20;99.90;;;;;;5050336;28;20558;-78
2023/12/19 09:00:03;;;;;;;1999.90;999.90;;;0.40;99.90;;;;;;5050858;28;20041;-77
2023/12/19 09:02:28;;;;;;;1999.90;999.90;;;0.30;99.50;;;;;;5050158;28;20102;-77
2023/12/19 09:04:54;;;;;;;1999.90;999.90;;;0.30;99.40;;;;;;5051666;28;20052;-77
2023/12/19 09:07:20;;;;;;;1999.90;999.90;;;0.20;98.90;;;;;;5050258;28;20025;-75
2023/12/19 09:09:45;;;;;;;1999.90;999.90;;;0.20;98.90;;;;;;5050109;28;20036;-77
2023/12/19 09:12:11;;;;;;;1999.90;999.90;;;0.20;99.10;;;;;;5049460;28;20037;-76
2023/12/19 09:14:37;;;;;;;1999.90;999.90;;;0.20;99.30;;;;;;5049713;28;20048;-77
2023/12/19 09:17:04;;;;;;;1999.90;999.90;;;0.30;99.30;;;;;;5051239;28;20041;-77
2023/12/19 09:19:31;;;;;;;1999.90;999.90;;;0.30;99.20;;;;;;5047773;28;20071;-77
2023/12/19 09:21:59;;;;;;;1999.90;999.90;;;0.40;99.10;;;;;;5050912;28;20045;-77
2023/12/19 09:24:30;;;;;;;1999.90;999.90;;;0.20;98.70;;;;;;5047902;28;20033;-77
2023/12/19 09:26:58;;;;;;;1999.90;999.90;;;0.30;98.80;;;;;;5049881;28;20044;-77
2023/12/19 09:29:26;;;;;;;1999.90;999.90;;;0.30;98.50;;;;;;5046751;28;20033;-75
2023/12/19 09:31:52;;;;;;;1999.90;999.90;;;0.30;97.90;;;;;;5048016;28;20096;-76
2023/12/19 09:34:18;;;;;;;1999.90;999.90;;;0.40;98.20;;;;;;5049410;28;20036;-76
2023/12/19 09:36:44;;;;;;;1999.90;999.90;;;0.60;98.70;;;;;;5045181;28;20025;-77
2023/12/19 09:39:11;;;;;;;1999.90;999.90;;;0.50;98.30;;;;;;5049463;28;20033;-76
2023/12/19 09:41:37;;;;;;;1999.90;999.90;;;0.50;98.70;;;;;;5048266;28;20029;-77
2023/12/19 09:44:03;;;;;;;1999.90;999.90;;;0.70;98.70;;;;;;5047894;28;20033;-77
2023/12/19 09:46:33;;;;;;;1999.90;999.90;;;0.70;98.10;;;;;;5047480;28;20040;-76
2023/12/19 09:49:00;;;;;;;1999.90;999.90;;;0.90;98.40;;;;;;5031871;28;20053;-78
2023/12/19 09:51:32;;;;;;;1999.90;999.90;;;0.80;98.10;;;;;;5045752;28;20043;-78
2023/12/19 09:54:01;;;;;;;1999.90;999.90;;;0.80;98.30;;;;;;5061006;28;20025;-77
2023/12/19 09:56:30;;;;;;;1999.90;999.90;;;0.70;98.20;;;;;;5045537;28;20039;-77
2023/12/19 09:59:00;;;;;;;1999.90;999.90;;;0.70;98.30;;;;;;5046090;28;20033;-77
2023/12/19 10:01:26;;;;;;;1999.90;999.90;;;0.60;98.50;;;;;;5044966;28;20033;-77
2023/12/19 10:03:55;;;;;;;1999.90;999.90;;;0.70;98.40;;;;;;5048369;28;20116;-78
2023/12/19 10:06:22;;;;;;;1999.90;999.90;;;0.70;98.80;;;;;;5045271;28;20090;-78
2023/12/19 10:08:48;;;;;;;1999.90;999.90;;;0.80;99.00;;;;;;5046929;28;20554;-76
2023/12/19 10:11:18;;;;;;;1999.90;999.90;;;1.00;99.00;;;;;;5048074;28;20029;-78
2023/12/19 10:13:47;;;;;;;1999.90;999.90;;;1.00;99.10;;;;;;5046695;28;20067;-76
2023/12/19 10:16:19;;;;;;;1999.90;999.90;;;1.00;98.80;;;;;;5046397;28;20021;-78
2023/12/19 10:18:54;;;;;;;1999.90;999.90;;;1.00;99.00;;;;;;5048097;28;20025;-77
2023/12/19 10:21:22;;;;;;;1999.90;999.90;;;1.00;98.70;;;;;;5048769;28;20549;-77
2023/12/19 10:23:48;;;;;;;1999.90;999.90;;;1.00;98.70;;;;;;5042055;28;20592;-77
2023/12/19 10:26:13;;;;;;;1999.90;999.90;;;1.10;98.70;;;;;;5047558;28;20090;-77
2023/12/19 10:28:40;;;;;;;1999.90;999.90;;;1.20;98.80;;;;;;5028871;28;20039;-78
2023/12/19 10:31:05;;;;;;;1999.90;999.90;;;1.40;99.00;;;;;;5046555;28;20028;-79
2023/12/19 10:33:43;;;;;;;1999.90;999.90;;;1.50;98.90;;;;;;5045170;28;20049;-77
2023/12/19 10:36:28;;;;;;;1999.90;999.90;;;1.60;98.80;;;;;;5057843;28;20415;-78
2023/12/19 10:38:58;;;;;;;1999.90;999.90;;;1.70;98.50;;;;;;5050044;28;20635;-78
2023/12/19 10:41:29;;;;;;;1999.90;999.90;;;1.70;98.50;;;;;;5047708;28;20146;-77
2023/12/19 10:43:58;;;;;;;;;;;1.90;98.60;;;;;;5044288;28;20112;-77
2023/12/19 10:46:27;;;;;;;1999.90;999.90;;;1.90;98.40;;;;;;5043406;28;19912;-78
2023/12/19 10:48:54;;;;;;;1999.90;999.90;;;2.10;98.60;;;;;;5043205;28;20586;-78
2023/12/19 10:51:42;;;;;;;1999.90;999.90;;;2.20;98.50;;;;;;5046122;28;20037;-79
2023/12/19 10:54:12;;;;;;;1999.90;999.90;;;2.30;98.30;;;;;;5040816;28;20040;-78
2023/12/19 10:56:58;;;;;;;1999.90;999.90;;;2.40;98.00;;;;;;5043711;28;20027;-77
2023/12/19 10:59:30;;;;;;;1999.90;999.90;;;2.50;97.70;;;;;;5045465;28;20024;-78
2023/12/19 11:02:25;;;;;;;1999.90;999.90;;;2.50;97.80;;;;;;5025773;28;20057;-80
2023/12/19 11:05:08;;;;;;;1999.90;999.90;;;2.60;97.60;;;;;;5044342;28;20021;-77
2023/12/19 11:07:34;;;;;;;1999.90;999.90;;;2.70;97.70;;;;;;5046549;28;20074;-77
2023/12/19 11:10:06;;;;;;;1999.90;999.90;;;2.70;97.50;;;;;;5044853;28;20032;-78
2023/12/19 11:12:33;;;;;;;1999.90;999.90;;;2.90;97.70;;;;;;5043213;28;20033;-79
2023/12/19 11:14:59;;;;;;;1999.90;999.90;;;3.10;97.40;;;;;;5047013;28;20021;-78
2023/12/19 11:17:29;;;;;;;1999.90;999.90;;;3.20;97.50;;;;;;5044117;28;20155;-78
2023/12/19 11:20:04;;;;;;;1999.90;999.90;;;3.40;97.30;;;;;;5044983;28;20062;-76
2023/12/19 11:22:39;;;;;;;1999.90;999.90;;;3.50;96.80;;;;;;5045276;28;20052;-77
2023/12/19 11:25:16;;;;;;;1999.90;999.90;;;3.60;97.00;;;;;;5046324;28;20029;-77
2023/12/19 11:27:51;;;;;;;1999.90;999.90;;;3.60;97.20;;;;;;5045221;28;20079;-81
2023/12/19 11:30:37;;;;;;;1999.90;999.90;;;3.80;97.20;;;;;;5041095;28;20501;-81
2023/12/19 11:33:13;;;;;;;1999.90;999.90;;;3.90;96.00;;;;;;5046341;28;20040;-82
2023/12/19 11:35:41;;;;;;;1999.90;999.90;;;3.80;95.80;;;;;;5045148;28;20029;-85
2023/12/19 11:38:28;;;;;;;1999.90;999.90;;;3.80;96.30;;;;;;5046098;28;20025;-80
2023/12/19 11:40:58;;;;;;;1999.90;999.90;;;3.90;96.50;;;;;;5046968;28;20109;-81
2023/12/19 11:43:33;;;;;;;1999.90;999.90;;;4.10;96.20;;;;;;5030710;28;20075;-79
2023/12/19 11:46:06;;;;;;;1999.90;999.90;;;4.20;96.60;;;;;;5045429;28;20041;-78
2023/12/19 11:48:37;;;;;;;1999.90;999.90;;;4.40;95.40;;;;;;5043604;28;20053;-83
2023/12/19 11:51:10;;;;;;;1999.90;999.90;;;4.40;94.90;;;;;;5045702;28;20541;-79
2023/12/19 11:53:36;;;;;;;1999.90;999.90;;;4.60;94.80;;;;;;5044740;28;20033;-82
2023/12/19 11:56:11;;;;;;;1999.90;999.90;;;4.60;94.70;;;;;;5046006;28;20498;-79
2023/12/19 11:58:46;;;;;;;1999.90;999.90;;;4.80;95.30;;;;;;5054917;28;20025;-80
2023/12/19 12:01:13;;;;;;;1999.90;999.90;;;4.80;94.40;;;;;;5044987;28;20104;-80